EHRDEDLP

Guest
Details From EHRD - Rotterdam The Hague
To EDLP - Paderborn Lippstadt
Flight Number -
Tags generated
Created
Modified
Stats Distance 156 nm / 290 km
Max Altitude 19,900 ft / 6,066 m
Waypoints 3
Social Downloads 1
Likes 0
Share VATSIM

Download

Looking for another format? Having issues loading an existing format? Contact us
Advertisement - Login to hide

Notes

Basic altitude profile: - Ascent Rate: 2500ft/min - Ascent Speed: 250kts - Cruise Altitude: 35000ft - Cruise Speed: 420kts - Descent Rate: 1500ft/min - Descent Speed: 250kts Options: - Use NATs: yes - Use PACOTS: yes - Use low airways: yes - Use high airways: yes

Route

EHRD NAPSI EDLP

ID Type Via Altitude Latitude Longitude Leg Dist Tot Dist Heading (true) Name
O EHRD APT - 0 ft / 0 m 51.95747˚ 4.44166˚ - 0 nm - Rotterdam The Hague
NAPSI FIX - 19,900 ft / 6,066 m 51.85528˚ 6.02139˚ 58 nm 58 nm 95° / 97° -
O EDLP APT - 0 ft / 0 m 51.61417˚ 8.61634˚ 97 nm 156 nm 98° / 100° Paderborn Lippstadt

Altitude Profile

Advertisement - Login to hide

EHRD

Details ICAO EHRD (RTM)
Name Rotterdam The Hague
Region Netherlands
Timezone Europe/Amsterdam (UTC+1.0)
Stats Elevation -15 ft / -5 m (AMSL)
Location 51.957468° 4.441662°
Runways 1
Magnetic Variation 1.049° E

METAR

EHRD 181455Z AUTO 35010KT 320V040 9999 BKN029 OVC032 08/05 Q1026 NOSIG

Decode

TAF

TAF TAF EHRD 181127Z 1812/1918 35011KT 9999 SCT020 BECMG 1815/1818 31006KT BECMG 1905/1908 26007KT PROB40 TEMPO 1905/1912 6000 -RADZ BKN018 BECMG 1913/1916 BKN008

Decode

Departure Runways

ID Width Length Bearing (true) Bearing (mag) Surface Threshold Offset Overrun Length
06 148 ft / 45 m 7,201 ft / 2,195 m 56.93° 55.88° Asphalt 656 ft / 200 m 0 ft / 0 m
24 148 ft / 45 m 7,201 ft / 2,195 m 236.95° 235.90° Asphalt 656 ft / 200 m 0 ft / 0 m

EDLP

Details ICAO EDLP (PAD)
Name Paderborn Lippstadt
Region Germany - Civil
Timezone Europe/Berlin (UTC+1.0)
Stats Elevation 699 ft / 213 m (AMSL)
Location 51.614166° 8.616336°
Runways 1
Magnetic Variation 2.358° E

METAR

EDLP 181450Z 13006KT 9999 BKN021 02/M00 Q1024

Decode

TAF

TAF EDLP 181100Z 1812/1912 VRB03KT 9999 BKN025 BECMG 1818/1821 BKN012 TEMPO 1821/1824 4000 BR BKN006 BECMG 1900/1903 27005KT 2500 BR BKN004 PROB30 TEMPO 1905/1911 0500 FG BKN001

Decode

Destination Runways

ID Width Length Bearing (true) Bearing (mag) Surface Threshold Offset Overrun Length
06 148 ft / 45 m 7,136 ft / 2,175 m 57.28° 54.92° Asphalt 0 ft / 0 m 1,066 ft / 325 m
24 148 ft / 45 m 7,136 ft / 2,175 m 237.30° 234.94° Asphalt 0 ft / 0 m 397 ft / 121 m

Approach Navaids

Runway Type Ident Frequency Range Bearing (true) Bearing (mag) Slope Elevation
06 Localiser IPLE 111.70 MHz 18 nm / 33 km 57.13° 54.77° - 674 ft / 205 m (AMSL)
06 Glidescope IPLE 111.70 MHz 10 nm / 19 km 57.29° 54.93° 3.00° 699 ft / 213 m (AMSL)
24 Localiser IPLW 108.55 MHz 18 nm / 33 km 236.80° 234.44° - 699 ft / 213 m (AMSL)
24 Glidescope IPLW 108.55 MHz 10 nm / 19 km 237.29° 234.93° 3.00° 674 ft / 205 m (AMSL)

Popular Alternatives